createdAt,value
2022-12-11T00:00:52.821Z,40.10
2022-12-11T00:03:20.043Z,38.43
2022-12-11T00:05:47.141Z,43.93
2022-12-11T00:08:15.447Z,46.23
2022-12-11T00:10:49.699Z,35.27
2022-12-11T00:13:16.731Z,40.00
2022-12-11T00:15:43.911Z,41.87
2022-12-11T00:18:14.925Z,40.27
2022-12-11T00:20:42.257Z,36.30
2022-12-11T00:23:09.236Z,36.83
2022-12-11T00:25:40.532Z,41.40
2022-12-11T00:28:07.456Z,37.93
2022-12-11T00:30:34.446Z,44.07
2022-12-11T00:33:01.485Z,41.67
2022-12-11T00:35:28.459Z,42.87
2022-12-11T00:37:55.438Z,47.90
2022-12-11T00:40:23.256Z,40.70
2022-12-11T00:42:50.224Z,42.83
2022-12-11T00:45:17.257Z,56.97
2022-12-11T00:47:44.205Z,42.07
2022-12-11T00:50:12.258Z,40.17
2022-12-11T00:52:40.672Z,31.50
2022-12-11T00:55:08.184Z,43.57
2022-12-11T00:57:35.681Z,37.37
2022-12-11T01:00:06.944Z,38.33
2022-12-11T01:02:34.483Z,38.70
2022-12-11T01:05:01.553Z,44.23
2022-12-11T01:07:29.058Z,43.70
2022-12-11T01:10:14.544Z,35.17
2022-12-11T01:12:41.525Z,44.27
2022-12-11T01:15:09.412Z,39.43
2022-12-11T01:17:36.586Z,37.37
2022-12-11T01:20:05.400Z,36.30
2022-12-11T01:22:32.392Z,37.80
2022-12-11T01:24:59.348Z,37.60
2022-12-11T01:27:26.523Z,44.70
2022-12-11T01:29:53.521Z,29.90
2022-12-11T01:32:20.508Z,30.90
2022-12-11T01:34:47.466Z,27.03
2022-12-11T01:37:14.539Z,34.90
2022-12-11T01:39:41.555Z,28.30
2022-12-11T01:42:18.840Z,28.40
2022-12-11T01:44:45.766Z,20.80
2022-12-11T01:47:13.081Z,26.17
2022-12-11T01:49:41.687Z,22.27
2022-12-11T01:52:16.571Z,17.60
2022-12-11T01:54:44.319Z,17.90
2022-12-11T01:57:12.761Z,21.20
2022-12-11T01:59:44.892Z,16.20
2022-12-11T02:02:27.094Z,17.33
2022-12-11T02:04:54.173Z,15.17
2022-12-11T02:07:21.390Z,19.77
2022-12-11T02:09:50.035Z,15.57
2022-12-11T02:13:07.117Z,15.50
2022-12-11T02:16:01.352Z,24.13
2022-12-11T02:18:56.076Z,15.40
2022-12-11T02:21:51.206Z,13.70
2022-12-11T02:24:41.168Z,20.43
2022-12-11T02:27:23.361Z,16.80
2022-12-11T02:30:13.889Z,15.20
2022-12-11T02:32:55.465Z,18.70
2022-12-11T02:35:37.140Z,14.23
2022-12-11T02:38:28.994Z,11.43
2022-12-11T02:40:57.635Z,18.07
2022-12-11T02:43:26.121Z,17.10
2022-12-11T02:45:54.403Z,17.80
2022-12-11T02:48:23.175Z,17.50
2022-12-11T02:50:55.627Z,24.23
2022-12-11T02:53:26.455Z,17.97
2022-12-11T02:56:06.045Z,18.80
2022-12-11T02:58:34.597Z,15.93
2022-12-11T03:01:01.731Z,11.47
2022-12-11T03:03:30.744Z,15.23
2022-12-11T03:05:57.806Z,16.83
2022-12-11T03:08:24.880Z,18.30
2022-12-11T03:10:51.890Z,21.40
2022-12-11T03:13:23.722Z,15.87
2022-12-11T03:16:22.688Z,22.07
2022-12-11T03:19:12.982Z,16.00
2022-12-11T03:21:53.970Z,21.57
2022-12-11T03:24:31.989Z,19.33
2022-12-11T03:27:15.268Z,19.77
2022-12-11T03:29:56.225Z,16.50
2022-12-11T03:32:29.141Z,19.40
2022-12-11T03:35:23.503Z,34.00
2022-12-11T03:37:52.405Z,18.17
2022-12-11T03:40:22.762Z,22.50
2022-12-11T03:42:53.674Z,26.40
2022-12-11T03:45:22.435Z,25.20
2022-12-11T03:47:51.055Z,27.37
2022-12-11T03:50:20.407Z,26.70
2022-12-11T03:52:48.290Z,30.23
2022-12-11T03:55:17.750Z,24.30
2022-12-11T03:57:45.218Z,27.60
2022-12-11T04:00:17.404Z,31.40
2022-12-11T04:02:45.208Z,29.30
2022-12-11T04:05:12.763Z,29.30
2022-12-11T04:07:39.967Z,29.63
2022-12-11T04:10:07.316Z,25.20
2022-12-11T04:12:34.355Z,28.60
2022-12-11T04:15:04.195Z,36.13
2022-12-11T04:17:55.414Z,29.13
2022-12-11T04:20:41.448Z,29.93
2022-12-11T04:23:33.501Z,26.13
2022-12-11T04:26:11.698Z,31.27
2022-12-11T04:28:40.525Z,29.13
2022-12-11T04:31:11.923Z,31.47
2022-12-11T04:33:39.007Z,38.57
2022-12-11T04:36:06.717Z,33.10
2022-12-11T04:38:33.737Z,32.03
2022-12-11T04:41:06.747Z,35.70
2022-12-11T04:43:33.913Z,26.93
2022-12-11T04:46:07.301Z,25.43
2022-12-11T04:48:35.285Z,28.10
2022-12-11T04:51:02.497Z,31.47
2022-12-11T04:53:29.586Z,33.47
2022-12-11T04:55:56.601Z,33.10
2022-12-11T04:58:25.386Z,30.97
2022-12-11T05:00:52.989Z,32.37
2022-12-11T05:03:20.781Z,29.13
2022-12-11T05:05:53.105Z,29.17
2022-12-11T05:08:21.184Z,37.27
2022-12-11T05:11:04.168Z,33.57
2022-12-11T05:13:31.754Z,29.80
2022-12-11T05:15:59.435Z,28.03
2022-12-11T05:18:26.540Z,36.27
2022-12-11T05:21:08.971Z,29.23
2022-12-11T05:23:36.135Z,40.50
2022-12-11T05:26:08.135Z,33.17
2022-12-11T05:28:37.796Z,44.63
2022-12-11T05:31:10.705Z,33.97
2022-12-11T05:33:37.802Z,37.60
2022-12-11T05:36:06.795Z,37.80
2022-12-11T05:38:34.079Z,35.10
2022-12-11T05:41:04.741Z,48.03
2022-12-11T05:43:33.721Z,37.63
2022-12-11T05:46:18.190Z,36.20
2022-12-11T05:48:48.238Z,35.53
2022-12-11T05:51:16.656Z,38.23
2022-12-11T05:53:46.405Z,37.20
2022-12-11T05:56:29.218Z,40.60
2022-12-11T05:58:57.750Z,40.00
2022-12-11T06:01:40.752Z,37.17
2022-12-11T06:04:10.643Z,45.13
2022-12-11T06:06:40.452Z,41.67
2022-12-11T06:09:07.721Z,39.30
2022-12-11T06:11:35.681Z,40.57
2022-12-11T06:14:04.161Z,41.33
2022-12-11T06:16:32.173Z,42.27
2022-12-11T06:18:59.401Z,42.73
2022-12-11T06:21:32.591Z,43.07
2022-12-11T06:24:03.197Z,40.50
2022-12-11T06:26:32.026Z,44.40
2022-12-11T06:28:59.047Z,41.03
2022-12-11T06:31:26.407Z,38.50
2022-12-11T06:33:54.319Z,49.80
2022-12-11T06:36:25.245Z,41.17
2022-12-11T06:38:53.084Z,46.70
2022-12-11T06:41:20.140Z,49.67
2022-12-11T06:43:47.366Z,40.17
2022-12-11T06:46:18.028Z,46.00
2022-12-11T06:48:45.822Z,46.70
2022-12-11T06:51:19.582Z,48.10
2022-12-11T06:53:55.239Z,49.73
2022-12-11T06:56:23.955Z,37.70
2022-12-11T06:58:52.063Z,44.97
2022-12-11T07:01:25.495Z,53.73
2022-12-11T07:03:57.735Z,36.77
2022-12-11T07:06:27.779Z,47.27
2022-12-11T07:08:55.208Z,40.57
2022-12-11T07:11:23.004Z,46.57
2022-12-11T07:13:50.313Z,40.07
2022-12-11T07:16:18.734Z,42.47
2022-12-11T07:18:51.253Z,39.67
2022-12-11T07:21:20.674Z,35.73
2022-12-11T07:23:49.194Z,39.57
2022-12-11T07:26:20.677Z,41.40
2022-12-11T07:28:47.919Z,37.67
2022-12-11T07:31:19.443Z,43.53
2022-12-11T07:33:47.316Z,40.50
2022-12-11T07:36:15.595Z,46.63
2022-12-11T07:38:42.710Z,42.57
2022-12-11T07:41:14.038Z,46.40
2022-12-11T07:43:42.215Z,55.20
2022-12-11T07:46:24.855Z,49.50
2022-12-11T07:48:52.281Z,44.70
2022-12-11T07:51:27.860Z,44.50
2022-12-11T07:54:00.534Z,37.77
2022-12-11T07:56:28.910Z,47.43
2022-12-11T07:58:56.272Z,55.53
2022-12-11T08:01:26.451Z,47.87
2022-12-11T08:03:54.753Z,48.00
2022-12-11T08:06:28.434Z,51.10
2022-12-11T08:08:56.938Z,47.80
2022-12-11T08:11:24.502Z,45.83
2022-12-11T08:13:51.515Z,48.83
2022-12-11T08:16:19.648Z,42.50
2022-12-11T08:18:47.741Z,63.77
2022-12-11T08:21:27.810Z,48.73
2022-12-11T08:23:55.485Z,44.20
2022-12-11T08:26:29.205Z,43.07
2022-12-11T08:28:56.897Z,46.70
2022-12-11T08:31:24.981Z,48.83
2022-12-11T08:33:52.535Z,50.03
2022-12-11T08:36:23.000Z,42.33
2022-12-11T08:38:50.730Z,38.40
2022-12-11T08:41:24.463Z,40.87
2022-12-11T08:43:54.949Z,41.77
2022-12-11T08:46:26.065Z,36.57
2022-12-11T08:48:54.544Z,41.60
2022-12-11T08:51:26.002Z,48.27
2022-12-11T08:53:56.996Z,45.20
2022-12-11T08:56:24.890Z,44.70
2022-12-11T08:58:53.035Z,40.53
2022-12-11T09:01:24.217Z,38.10
2022-12-11T09:03:52.918Z,40.73
2022-12-11T09:06:23.230Z,36.30
2022-12-11T09:08:53.319Z,42.23
2022-12-11T09:11:24.662Z,43.50
2022-12-11T09:13:52.388Z,52.23
2022-12-11T09:16:24.119Z,44.07
2022-12-11T09:18:54.274Z,45.97
2022-12-11T09:21:24.701Z,41.70
2022-12-11T09:23:58.774Z,43.37
2022-12-11T09:26:27.640Z,45.40
2022-12-11T09:28:55.005Z,65.27
2022-12-11T09:31:29.055Z,38.70
2022-12-11T09:34:00.140Z,30.33
2022-12-11T09:36:27.752Z,39.60
2022-12-11T09:38:54.743Z,46.47
2022-12-11T09:41:21.701Z,41.53
2022-12-11T09:44:03.611Z,37.20
2022-12-11T09:46:34.319Z,35.37
2022-12-11T09:49:04.228Z,38.67
2022-12-11T09:52:14.630Z,44.03
2022-12-11T09:54:51.235Z,38.80
2022-12-11T09:58:14.384Z,38.10
2022-12-11T10:01:05.796Z,45.03
2022-12-11T10:03:57.328Z,53.03
2022-12-11T10:07:05.544Z,50.13
2022-12-11T10:09:47.907Z,48.27
2022-12-11T10:12:51.531Z,41.00
2022-12-11T10:15:43.468Z,46.97
2022-12-11T10:18:17.170Z,51.53
2022-12-11T10:20:45.344Z,43.23
2022-12-11T10:23:28.308Z,54.23
2022-12-11T10:26:01.808Z,45.93
2022-12-11T10:28:29.380Z,43.60
2022-12-11T10:31:08.186Z,49.90
2022-12-11T10:33:50.205Z,49.43
2022-12-11T10:36:29.576Z,38.60
2022-12-11T10:38:56.829Z,50.40
2022-12-11T10:41:43.316Z,57.47
2022-12-11T10:44:26.467Z,42.40
2022-12-11T10:47:11.861Z,53.77
2022-12-11T10:49:54.081Z,54.07
2022-12-11T10:52:35.837Z,48.70
2022-12-11T10:55:08.875Z,44.70
2022-12-11T10:57:39.211Z,46.17
2022-12-11T11:00:25.605Z,44.60
2022-12-11T11:02:52.698Z,45.10
2022-12-11T11:05:35.778Z,45.23
2022-12-11T11:08:10.846Z,49.10
2022-12-11T11:10:37.889Z,55.83
2022-12-11T11:13:05.269Z,55.13
2022-12-11T11:15:32.393Z,47.83
2022-12-11T11:18:13.199Z,54.90
2022-12-11T11:20:47.475Z,51.17
2022-12-11T11:23:17.172Z,65.77
2022-12-11T11:25:59.974Z,64.97
2022-12-11T11:28:36.385Z,36.10
2022-12-11T11:31:15.555Z,36.30
2022-12-11T11:34:04.001Z,44.03
2022-12-11T11:36:35.309Z,46.63
2022-12-11T11:39:26.617Z,37.23
2022-12-11T11:42:15.566Z,38.23
2022-12-11T11:45:02.347Z,40.43
2022-12-11T11:47:42.132Z,49.07
2022-12-11T11:50:22.491Z,34.03
2022-12-11T11:53:12.177Z,36.83
2022-12-11T11:56:03.757Z,38.23
2022-12-11T11:58:45.601Z,42.67
2022-12-11T12:01:18.378Z,38.40
2022-12-11T12:03:48.911Z,46.23
2022-12-11T12:07:03.828Z,43.90
2022-12-11T12:09:49.576Z,45.33
2022-12-11T12:12:39.886Z,48.90
2022-12-11T12:16:22.881Z,42.27
2022-12-11T12:19:16.634Z,40.60
2022-12-11T12:21:51.347Z,39.63
2022-12-11T12:24:52.419Z,43.40
2022-12-11T12:27:53.682Z,41.93
2022-12-11T12:30:23.290Z,46.67
2022-12-11T12:33:25.870Z,41.67
2022-12-11T12:36:28.401Z,32.77
2022-12-11T12:39:42.642Z,43.97
2022-12-11T12:42:15.461Z,40.37
2022-12-11T12:45:13.210Z,43.73
2022-12-11T12:47:43.044Z,42.93
2022-12-11T12:50:19.400Z,54.67
2022-12-11T12:52:48.535Z,45.30
2022-12-11T12:55:28.767Z,43.90
2022-12-11T12:58:08.320Z,38.40
2022-12-11T13:00:41.769Z,45.50
2022-12-11T13:03:30.289Z,47.43
2022-12-11T13:06:03.216Z,47.90
2022-12-11T13:08:47.707Z,52.00
2022-12-11T13:11:18.474Z,56.93
2022-12-11T13:14:07.459Z,35.07
2022-12-11T13:16:44.290Z,41.10
2022-12-11T13:19:42.378Z,44.83
2022-12-11T13:22:12.843Z,45.40
2022-12-11T13:24:53.345Z,43.97
2022-12-11T13:27:41.736Z,44.00
2022-12-11T13:30:24.653Z,45.20
2022-12-11T13:33:08.286Z,38.97
2022-12-11T13:35:35.889Z,44.93
2022-12-11T13:38:19.330Z,38.60
2022-12-11T13:40:55.858Z,27.00
2022-12-11T13:43:29.825Z,43.20
2022-12-11T13:46:01.436Z,37.27
2022-12-11T13:48:40.178Z,32.63
2022-12-11T13:51:07.488Z,32.87
2022-12-11T13:53:34.494Z,40.80
2022-12-11T13:56:07.956Z,32.00
2022-12-11T13:58:59.978Z,42.50
2022-12-11T14:01:32.783Z,39.33
2022-12-11T14:04:10.788Z,28.57
2022-12-11T14:06:39.826Z,49.90
2022-12-11T14:09:08.597Z,32.57
2022-12-11T14:11:40.524Z,35.93
2022-12-11T14:14:19.086Z,25.10
2022-12-11T14:16:52.184Z,33.70
2022-12-11T14:19:21.812Z,26.73
2022-12-11T14:22:00.608Z,36.77
2022-12-11T14:24:29.140Z,30.70
2022-12-11T14:26:56.411Z,40.23
2022-12-11T14:29:33.663Z,30.87
2022-12-11T14:32:06.787Z,33.67
2022-12-11T14:34:45.670Z,35.50
2022-12-11T14:37:16.122Z,34.20
2022-12-11T14:40:07.935Z,40.90
2022-12-11T14:42:59.971Z,25.17
2022-12-11T14:45:41.038Z,22.17
2022-12-11T14:48:18.339Z,30.90
2022-12-11T14:50:50.901Z,40.53
2022-12-11T14:53:22.628Z,30.30
2022-12-11T14:55:50.786Z,35.73
2022-12-11T14:58:29.156Z,33.73
2022-12-11T15:01:20.267Z,33.33
2022-12-11T15:03:48.018Z,29.77
2022-12-11T15:06:29.192Z,22.20
2022-12-11T15:08:56.597Z,25.13
2022-12-11T15:11:30.399Z,37.43
2022-12-11T15:14:01.090Z,27.83
2022-12-11T15:16:33.356Z,23.40
2022-12-11T15:19:02.119Z,23.77
2022-12-11T15:21:35.696Z,29.57
2022-12-11T15:24:05.518Z,27.53
2022-12-11T15:26:47.955Z,39.23
2022-12-11T15:29:39.341Z,29.33
2022-12-11T15:32:09.173Z,26.67
2022-12-11T15:34:48.657Z,31.83
2022-12-11T15:37:31.944Z,31.57
2022-12-11T15:40:01.551Z,32.87
2022-12-11T15:42:41.813Z,29.67
2022-12-11T15:45:17.868Z,28.33
2022-12-11T15:47:45.882Z,29.27
2022-12-11T15:50:17.249Z,33.17
2022-12-11T15:52:44.544Z,36.70
2022-12-11T15:55:14.136Z,26.20
2022-12-11T15:57:49.712Z,33.20
2022-12-11T16:00:24.032Z,38.93
2022-12-11T16:02:52.105Z,30.53
2022-12-11T16:05:19.388Z,30.50
2022-12-11T16:07:46.531Z,30.47
2022-12-11T16:10:17.638Z,35.30
2022-12-11T16:12:45.239Z,28.50
2022-12-11T16:15:19.917Z,32.10
2022-12-11T16:17:49.985Z,31.93
2022-12-11T16:20:17.863Z,30.13
2022-12-11T16:22:44.872Z,28.33
2022-12-11T16:25:12.054Z,24.40
2022-12-11T16:27:39.341Z,28.50
2022-12-11T16:30:07.042Z,33.07
2022-12-11T16:32:34.133Z,20.50
2022-12-11T16:35:01.171Z,26.87
2022-12-11T16:37:28.352Z,36.43
2022-12-11T16:39:55.459Z,27.17
2022-12-11T16:42:22.488Z,29.57
2022-12-11T16:44:49.531Z,31.17
2022-12-11T16:47:16.558Z,34.37
2022-12-11T16:49:43.573Z,27.60
2022-12-11T16:52:10.760Z,27.20
2022-12-11T16:54:37.852Z,26.10
2022-12-11T16:57:05.209Z,24.53
2022-12-11T16:59:36.904Z,31.47
2022-12-11T17:02:05.174Z,35.27
2022-12-11T17:04:32.640Z,26.97
2022-12-11T17:06:59.647Z,29.23
2022-12-11T17:09:26.755Z,26.20
2022-12-11T17:11:53.880Z,27.27
2022-12-11T17:14:21.004Z,30.37
2022-12-11T17:16:48.236Z,34.33
2022-12-11T17:19:16.652Z,31.83
2022-12-11T17:21:47.082Z,26.73
2022-12-11T17:24:18.435Z,34.00
2022-12-11T17:26:45.489Z,35.07
2022-12-11T17:29:13.403Z,27.17
2022-12-11T17:31:40.790Z,31.10
2022-12-11T17:34:07.783Z,29.13
2022-12-11T17:36:35.133Z,38.80
2022-12-11T17:39:03.788Z,28.83
2022-12-11T17:41:30.872Z,36.70
2022-12-11T17:43:57.864Z,40.93
2022-12-11T17:46:24.906Z,46.30
2022-12-11T17:48:51.998Z,52.20
2022-12-11T17:51:24.589Z,39.07
2022-12-11T17:53:53.151Z,39.10
2022-12-11T17:56:20.289Z,34.27
2022-12-11T17:58:47.361Z,35.70
2022-12-11T18:01:14.601Z,45.97
2022-12-11T18:03:42.071Z,33.87
2022-12-11T18:06:13.704Z,29.50
2022-12-11T18:08:41.951Z,34.27
2022-12-11T18:11:21.613Z,46.37
2022-12-11T18:13:49.922Z,33.80
2022-12-11T18:16:30.812Z,35.97
2022-12-11T18:18:58.099Z,36.93
2022-12-11T18:21:33.015Z,33.93
2022-12-11T18:24:01.583Z,40.27
2022-12-11T18:26:29.117Z,33.97
2022-12-11T18:28:56.216Z,31.90
2022-12-11T18:31:23.472Z,40.27
2022-12-11T18:33:51.334Z,43.33
2022-12-11T18:36:20.665Z,39.50
2022-12-11T18:38:48.194Z,42.90
2022-12-11T18:41:17.180Z,40.67
2022-12-11T18:43:44.165Z,46.27
2022-12-11T18:46:15.507Z,42.53
2022-12-11T18:48:43.439Z,48.40
2022-12-11T18:51:17.853Z,46.50
2022-12-11T18:53:45.524Z,50.13
2022-12-11T18:56:16.698Z,46.20
2022-12-11T18:58:44.338Z,44.77
2022-12-11T19:01:25.112Z,54.13
2022-12-11T19:04:00.652Z,46.03
2022-12-11T19:06:31.998Z,46.37
2022-12-11T19:08:59.820Z,47.53
2022-12-11T19:11:30.182Z,45.87
2022-12-11T19:13:57.926Z,47.23
2022-12-11T19:16:33.638Z,65.33
2022-12-11T19:19:09.894Z,56.50
2022-12-11T19:21:38.451Z,52.87
2022-12-11T19:24:09.135Z,58.07
2022-12-11T19:26:36.984Z,69.03
2022-12-11T19:29:04.715Z,47.27
2022-12-11T19:31:33.219Z,59.67
2022-12-11T19:34:01.179Z,61.33
2022-12-11T19:36:30.700Z,63.37
2022-12-11T19:39:01.455Z,52.60
2022-12-11T19:41:31.014Z,56.07
2022-12-11T19:43:59.237Z,50.33
2022-12-11T19:46:26.972Z,46.40
2022-12-11T19:48:56.635Z,50.73
2022-12-11T19:51:29.042Z,53.03
2022-12-11T19:53:57.344Z,41.90
2022-12-11T19:56:25.661Z,39.77
2022-12-11T19:58:52.686Z,43.17
2022-12-11T20:01:25.062Z,56.67
2022-12-11T20:03:54.411Z,49.93
2022-12-11T20:06:22.320Z,41.67
2022-12-11T20:08:49.960Z,48.83
2022-12-11T20:11:19.071Z,45.67
2022-12-11T20:13:49.975Z,54.00
2022-12-11T20:16:28.894Z,54.50
2022-12-11T20:19:08.323Z,63.17
2022-12-11T20:21:35.381Z,47.10
2022-12-11T20:24:02.337Z,51.60
2022-12-11T20:26:31.041Z,64.30
2022-12-11T20:28:58.243Z,52.47
2022-12-11T20:31:26.394Z,61.00
2022-12-11T20:33:56.071Z,56.73
2022-12-11T20:36:25.153Z,64.00
2022-12-11T20:38:53.013Z,48.73
2022-12-11T20:41:23.647Z,68.30
2022-12-11T20:43:53.301Z,55.67
2022-12-11T20:46:24.848Z,50.30
2022-12-11T20:48:52.694Z,50.80
2022-12-11T20:51:25.693Z,59.60
2022-12-11T20:53:58.477Z,43.03
2022-12-11T20:56:29.551Z,53.33
2022-12-11T20:58:57.812Z,45.00
2022-12-11T21:01:28.249Z,51.73
2022-12-11T21:03:55.348Z,64.97
2022-12-11T21:06:31.733Z,60.73
2022-12-11T21:09:09.724Z,60.77
2022-12-11T21:11:37.114Z,55.60
2022-12-11T21:14:04.570Z,60.37
2022-12-11T21:16:31.984Z,63.37
2022-12-11T21:18:59.360Z,62.70
2022-12-11T21:21:26.800Z,66.03
2022-12-11T21:23:53.907Z,57.40
2022-12-11T21:26:21.295Z,54.37
2022-12-11T21:28:48.589Z,66.87
2022-12-11T21:31:18.915Z,61.17
2022-12-11T21:33:47.488Z,68.57
2022-12-11T21:36:16.148Z,57.27
2022-12-11T21:38:44.708Z,50.43
2022-12-11T21:41:22.616Z,54.47
2022-12-11T21:44:56.710Z,51.73
2022-12-11T21:46:39.789Z,48.90
2022-12-11T21:49:08.438Z,49.43
2022-12-11T21:51:41.482Z,57.70
2022-12-11T21:54:17.761Z,47.87
2022-12-11T21:56:46.327Z,44.37
2022-12-11T21:59:13.862Z,54.33
2022-12-11T22:01:45.949Z,54.13
2022-12-11T22:04:15.032Z,50.93
2022-12-11T22:06:43.508Z,48.50
2022-12-11T22:09:12.542Z,45.73
2022-12-11T22:11:40.948Z,46.07
2022-12-11T22:14:13.447Z,45.63
2022-12-11T22:16:40.897Z,53.27
2022-12-11T22:19:07.878Z,52.57
2022-12-11T22:21:35.172Z,43.73
2022-12-11T22:24:02.271Z,42.73
2022-12-11T22:26:29.380Z,44.10
2022-12-11T22:28:57.043Z,36.27
2022-12-11T22:31:26.641Z,44.50
2022-12-11T22:33:54.891Z,43.00
2022-12-11T22:36:26.895Z,41.47
2022-12-11T22:38:54.195Z,42.20
2022-12-11T22:41:32.621Z,44.87
2022-12-11T22:44:00.366Z,30.10
2022-12-11T22:46:29.983Z,33.70
2022-12-11T22:48:58.554Z,30.63
2022-12-11T22:51:25.652Z,37.70
2022-12-11T22:53:52.576Z,37.43
2022-12-11T22:56:19.561Z,26.30
2022-12-11T22:58:46.543Z,28.83
2022-12-11T23:01:21.838Z,33.73
2022-12-11T23:03:49.441Z,34.83
2022-12-11T23:06:19.690Z,29.10
2022-12-11T23:08:47.006Z,33.13
2022-12-11T23:11:26.112Z,36.87
2022-12-11T23:13:53.790Z,35.50
2022-12-11T23:16:23.196Z,39.33
2022-12-11T23:18:50.786Z,43.93
2022-12-11T23:21:17.867Z,40.37
2022-12-11T23:23:45.400Z,32.20
2022-12-11T23:26:15.425Z,35.53
2022-12-11T23:28:42.488Z,31.90
2022-12-11T23:31:10.515Z,45.23
2022-12-11T23:33:37.976Z,34.60
2022-12-11T23:36:05.757Z,40.97
2022-12-11T23:38:33.219Z,40.67
2022-12-11T23:41:04.242Z,33.10
2022-12-11T23:43:31.394Z,37.80
2022-12-11T23:45:58.375Z,36.13
2022-12-11T23:48:25.640Z,31.43
2022-12-11T23:50:52.919Z,28.93
2022-12-11T23:53:19.916Z,30.17
2022-12-11T23:55:46.986Z,29.10
2022-12-11T23:58:13.996Z,35.77
